Sovereign — 9HUE9 — position and weather

sailwx.info

Track history (hours):
 
Tides and Currents Weather Stations Pressure Air Temp Water Temp Dewpoint Dewpoint Depression Visibility Wind Speed Wind Dir Waves Ship Positions

Sovereign

Last reported at 2018-Oct-24 05:03 UTC. Time now 2018-Oct-24 05:47 UTC.
Position N 40°40' E 014°06'.

Length 269 m; draft 7.8 m.

Type: Passenger vessel. MMSI: 249539000.

Date/timePositionNaut miles runAvg speedWind from/ knotsBaromVisibWave heightAir tempDewpointWater temp
2018-Oct-24 05:03N 40°40' E 014°06'115.1
2018-Oct-24 05:01N 40°40' E 014°06'611.3
2018-Oct-24 04:30N 40°37' E 013°59'612.8
2018-Oct-24 04:03N 40°36' E 013°52'112.7
2018-Oct-24 04:00N 40°35' E 013°51'612.7
2018-Oct-24 03:30N 40°34' E 013°43'612.6
2018-Oct-24 03:03N 40°32' E 013°36'112.1
2018-Oct-24 03:00N 40°32' E 013°35'611.8
2018-Oct-24 02:30N 40°32' E 013°27'612.7
2018-Oct-24 02:03N 40°33' E 013°20'112.6
2018-Oct-24 02:00N 40°33' E 013°19'4715.7
2018-Oct-23 23:00N 40°42' E 012°18'17914.9 160 / 71018.010.8 20.020.022.0
2018-Oct-23 11:00N 41°12' E 008°24'16715.2 350 / 31021.010.8 21.021.022.0
2018-Oct-23 00:00N 41°12' E 004°42'11115.9 350 / 451023.010.8 20.020.022.0
2018-Oct-22 17:00N 41°16' E 002°14'510.3
2018-Oct-22 16:30N 41°20' E 002°10'1 0.6
2018-Oct-22 14:20N 41°22' E 002°11'0 0.0
2018-Oct-22 13:29N 41°22' E 002°11'0 0.0
2018-Oct-22 13:02N 41°22' E 002°11'0 0.0
2018-Oct-22 12:59N 41°22' E 002°11'0 0.0
2018-Oct-22 12:29N 41°22' E 002°11'0 0.0
2018-Oct-22 12:02N 41°22' E 002°11'0 0.0
2018-Oct-22 11:59N 41°22' E 002°11'0 0.0
2018-Oct-22 11:29N 41°22' E 002°11'0 0.0
2018-Oct-22 11:02N 41°22' E 002°11'0 0.0
2018-Oct-22 10:56N 41°22' E 002°11'0 0.0
2018-Oct-22 10:29N 41°22' E 002°11'0 0.0
2018-Oct-22 10:02N 41°22' E 002°11'0 0.0
2018-Oct-22 09:59N 41°22' E 002°11'0 0.0
2018-Oct-22 09:29N 41°22' E 002°11'3 0.6
2018-Oct-22 05:05N 41°19' E 002°10'0 8.4
2018-Oct-22 05:02N 41°19' E 002°10'0 8.5
2018-Oct-22 05:00N 41°18' E 002°10'710.8
2018-Oct-22 04:22N 41°16' E 002°19'412.9
2018-Oct-22 04:04N 41°16' E 002°24'110.0
2018-Oct-22 04:01N 41°16' E 002°25'5 9.1
2018-Oct-22 03:30N 41°17' E 002°31'510.9
2018-Oct-22 03:03N 41°19' E 002°37'111.5
2018-Oct-22 03:00N 41°19' E 002°38'611.8
2018-Oct-22 02:31N 41°21' E 002°45'12312.1
2018-Oct-21 16:20N 43°15' E 003°48'414.1
2018-Oct-21 16:03N 43°19' E 003°47'114.2
2018-Oct-21 16:00N 43°19' E 003°47'510.4
2018-Oct-21 15:30N 43°24' E 003°44'1 1.3
2018-Oct-21 15:03N 43°24' E 003°43'0 0.0
2018-Oct-21 14:57N 43°24' E 003°43'0 0.0
2018-Oct-21 14:03N 43°24' E 003°43'0 0.0
2018-Oct-21 13:57N 43°24' E 003°43'0 0.0
2018-Oct-21 13:27N 43°24' E 003°43'0 0.0
2018-Oct-21 13:03N 43°24' E 003°43'0 0.0
2018-Oct-21 12:57N 43°24' E 003°43'0 0.0
2018-Oct-21 12:27N 43°24' E 003°43'0 0.0
2018-Oct-21 12:03N 43°24' E 003°43'0 0.0
2018-Oct-21 11:51N 43°24' E 003°43'0 0.0
2018-Oct-21 11:27N 43°24' E 003°43'0 0.0
2018-Oct-21 11:03N 43°24' E 003°43'0 0.0
2018-Oct-21 10:57N 43°24' E 003°43'0 0.0
2018-Oct-21 10:27N 43°24' E 003°43'0 0.0
2018-Oct-21 10:03N 43°24' E 003°43'0 0.0
2018-Oct-21 09:57N 43°24' E 003°43'0 0.0
2018-Oct-21 09:27N 43°24' E 003°43'0 0.0
2018-Oct-21 09:03N 43°24' E 003°43'0 0.0
2018-Oct-21 08:57N 43°24' E 003°43'0 0.0
2018-Oct-21 08:27N 43°24' E 003°43'0 0.0
2018-Oct-21 08:03N 43°24' E 003°43'0 0.0
2018-Oct-21 07:57N 43°24' E 003°43'0 0.0
2018-Oct-21 07:27N 43°24' E 003°43'0 0.0
2018-Oct-21 07:03N 43°24' E 003°43'0 0.0
2018-Oct-21 06:57N 43°24' E 003°43'0 0.0
2018-Oct-21 06:27N 43°24' E 003°43'0 0.0
2018-Oct-21 06:03N 43°24' E 003°43'0 0.0
2018-Oct-21 05:57N 43°24' E 003°43'0 0.0
2018-Oct-21 05:27N 43°24' E 003°43'0 0.3
2018-Oct-21 05:03N 43°24' E 003°43'0 1.9
2018-Oct-21 05:00N 43°24' E 003°43'3 5.4
2018-Oct-21 04:30N 43°23' E 003°46'511.7
2018-Oct-21 04:04N 43°19' E 003°51'114.0
2018-Oct-21 03:58N 43°18' E 003°52'613.1
2018-Oct-21 03:30N 43°14' E 003°58'511.0
2018-Oct-21 03:03N 43°12' E 004°05'112.2
2018-Oct-21 03:00N 43°12' E 004°06'2712.2
2018-Oct-21 00:48N 43°05' E 004°41'912.2
2018-Oct-21 00:05N 43°02' E 004°53'312.5
2018-Oct-20 23:50N 43°01' E 004°57'1012.7
2018-Oct-20 23:03N 42°59' E 005°10'212.8
2018-Oct-20 22:55N 42°58' E 005°12'5516.4
2018-Oct-20 19:34N 42°54' E 006°27'116.7
2018-Oct-20 19:30N 42°54' E 006°29'716.7
2018-Oct-20 19:03N 42°54' E 006°39'116.4
2018-Oct-20 19:00N 42°54' E 006°40'915.2
2018-Oct-20 18:26N 42°58' E 006°50'616.8
2018-Oct-20 18:03N 43°03' E 006°56'116.9
2018-Oct-20 18:01N 43°04' E 006°56'917.0
2018-Oct-20 17:30N 43°11' E 007°03'816.9
2018-Oct-20 17:04N 43°17' E 007°10'116.9
2018-Oct-20 17:01N 43°17' E 007°10'917.1
2018-Oct-20 16:31N 43°26' E 007°13'816.8
2018-Oct-20 16:04N 43°33' E 007°16'116.3
2018-Oct-20 16:00N 43°34' E 007°16'714.2
2018-Oct-20 15:30N 43°41' E 007°19'1 1.4
2018-Oct-20 14:58N 43°41' E 007°19'0 0.1
2018-Oct-20 14:28N 43°41' E 007°19'0 0.0
2018-Oct-20 13:58N 43°41' E 007°19'0 0.0
2018-Oct-20 13:22N 43°41' E 007°19'0 0.0
2018-Oct-20 13:01N 43°41' E 007°19'0 0.1
2018-Oct-20 12:58N 43°41' E 007°19'0 0.0
2018-Oct-20 12:28N 43°41' E 007°19'0 0.0
2018-Oct-20 12:01N 43°41' E 007°19'0 0.0
2018-Oct-20 11:58N 43°41' E 007°19'0 0.0
2018-Oct-20 11:28N 43°41' E 007°19'0 0.0
2018-Oct-20 11:01N 43°41' E 007°19'0 0.0
2018-Oct-20 10:55N 43°41' E 007°19'0 0.0
2018-Oct-20 10:28N 43°41' E 007°19'0 0.0
2018-Oct-20 10:01N 43°41' E 007°19'0 0.1
2018-Oct-20 09:58N 43°41' E 007°19'0 0.0
2018-Oct-20 09:25N 43°41' E 007°19'0 0.1
2018-Oct-20 08:55N 43°41' E 007°19'0 0.0
2018-Oct-20 08:28N 43°41' E 007°19'0 0.0
2018-Oct-20 08:01N 43°41' E 007°19'0 0.0
2018-Oct-20 07:58N 43°41' E 007°19'0 0.0
2018-Oct-20 07:28N 43°41' E 007°19'0 0.0
2018-Oct-20 06:58N 43°41' E 007°19'0 0.0
2018-Oct-20 06:28N 43°41' E 007°19'0 0.0
2018-Oct-20 05:52N 43°41' E 007°19'0 0.0
2018-Oct-20 05:30N 43°41' E 007°19'2 4.1
2018-Oct-20 05:03N 43°40' E 007°20'111.3
2018-Oct-20 05:00N 43°40' E 007°21'612.6
2018-Oct-20 04:30N 43°39' E 007°30'613.1
2018-Oct-20 04:03N 43°39' E 007°38'113.1
2018-Oct-20 04:00N 43°39' E 007°39'613.0
2018-Oct-20 03:30N 43°39' E 007°48'4 9.2
2018-Oct-20 03:03N 43°39' E 007°54'1 9.6
2018-Oct-20 03:00N 43°39' E 007°54'5 9.7
2018-Oct-20 02:31N 43°38' E 008°01'4 9.7
2018-Oct-20 02:03N 43°38' E 008°07'0 9.9
2018-Oct-20 02:01N 43°38' E 008°08'5 9.6
2018-Oct-20 01:30N 43°38' E 008°14'4 9.4
2018-Oct-20 01:03N 43°38' E 008°20'0 9.5
2018-Oct-20 01:00N 43°38' E 008°21'5 9.3
2018-Oct-20 00:30N 43°37' E 008°27'4 9.0
2018-Oct-20 00:03N 43°37' E 008°33'0 9.2
2018-Oct-20 00:01N 43°37' E 008°33'5 9.0
2018-Oct-19 23:30N 43°37' E 008°40'511.7
2018-Oct-19 23:03N 43°37' E 008°47'113.2
2018-Oct-19 23:00N 43°37' E 008°48'713.3
2018-Oct-19 22:30N 43°36' E 008°57'613.8
2018-Oct-19 22:03N 43°36' E 009°05'113.9
2018-Oct-19 22:00N 43°36' E 009°06'714.1
2018-Oct-19 21:30N 43°35' E 009°16'614.3
2018-Oct-19 21:03N 43°35' E 009°25'114.4
2018-Oct-19 21:00N 43°35' E 009°26'714.3
2018-Oct-19 20:30N 43°35' E 009°36'614.3
2018-Oct-19 20:03N 43°33' E 009°44'114.3
2018-Oct-19 20:00N 43°33' E 009°45'714.6
2018-Oct-19 19:30N 43°32' E 009°55'614.3
2018-Oct-19 19:03N 43°30' E 010°04'114.1
2018-Oct-19 19:00N 43°30' E 010°05'713.7
2018-Oct-19 18:30N 43°32' E 010°14'3 6.6
2018-Oct-19 18:03N 43°33' E 010°18'0 0.1
2018-Oct-19 18:00N 43°33' E 010°18'0 0.0
2018-Oct-19 17:30N 43°33' E 010°18'0 0.0
2018-Oct-19 17:00N 43°33' E 010°18'0 0.0
2018-Oct-19 16:30N 43°33' E 010°18'0 0.0
2018-Oct-19 16:00N 43°33' E 010°18'0 0.0
2018-Oct-19 15:30N 43°33' E 010°18'0 0.0
2018-Oct-19 15:00N 43°33' E 010°18'0 0.0
2018-Oct-19 14:30N 43°33' E 010°18'0 0.0
2018-Oct-19 13:30N 43°33' E 010°18'0 0.0
2018-Oct-19 13:00N 43°33' E 010°18'0 0.0
2018-Oct-19 12:30N 43°33' E 010°18'0 0.0
2018-Oct-19 12:00N 43°33' E 010°18'0 0.0
2018-Oct-19 11:30N 43°33' E 010°18'0 0.0
2018-Oct-19 11:00N 43°33' E 010°18'0 0.0
2018-Oct-19 10:30N 43°33' E 010°18'0 0.0
2018-Oct-19 10:00N 43°33' E 010°18'0 0.0
2018-Oct-19 09:30N 43°33' E 010°18'0 0.0
2018-Oct-19 09:00N 43°33' E 010°18'0 0.0
2018-Oct-19 08:30N 43°33' E 010°18'0 0.0
2018-Oct-19 08:00N 43°33' E 010°18'0 0.0
2018-Oct-19 07:30N 43°33' E 010°18'0 0.0
2018-Oct-19 07:00N 43°33' E 010°18'0 0.0
2018-Oct-19 06:30N 43°33' E 010°18'0 0.0
2018-Oct-19 06:00N 43°33' E 010°18'0 0.3
2018-Oct-19 05:30N 43°33' E 010°18'2 4.0
2018-Oct-19 05:03N 43°32' E 010°16'0 7.5
2018-Oct-19 05:00N 43°32' E 010°16'5 9.5
2018-Oct-19 04:30N 43°27' E 010°13'612.8
2018-Oct-19 04:03N 43°22' E 010°11'0 9.3
2018-Oct-19 04:00N 43°21' E 010°11'510.2
2018-Oct-19 03:30N 43°16' E 010°09'511.7
2018-Oct-19 03:03N 43°11' E 010°08'111.6
2018-Oct-19 03:00N 43°11' E 010°08'611.4
2018-Oct-19 02:30N 43°05' E 010°06'512.0
2018-Oct-19 02:03N 42°60' E 010°05'112.3
2018-Oct-19 02:00N 42°59' E 010°04'612.5
2018-Oct-19 01:30N 42°53' E 010°03'612.5
2018-Oct-19 01:03N 42°47' E 010°01'012.5
2018-Oct-19 01:00N 42°47' E 010°01'612.1
2018-Oct-19 00:30N 42°42' E 010°05'612.5
2018-Oct-19 00:01N 42°37' E 010°11'112.4
2018-Oct-18 23:58N 42°37' E 010°11'612.4
2018-Oct-18 23:30N 42°32' E 010°16'612.6
2018-Oct-18 23:03N 42°28' E 010°22'112.7
2018-Oct-18 22:58N 42°27' E 010°22'613.1
2018-Oct-18 22:30N 42°23' E 010°28'713.3
2018-Oct-18 21:58N 42°17' E 010°34'813.6
2018-Oct-18 21:25N 42°12' E 010°41'101 4.5
2018-Oct-17 23:00N 41°06' E 012°24'5315.9 050 / 101016.010.8 21.019.423.0
2018-Oct-17 19:38N 40°42' E 013°27'216.7
2018-Oct-17 19:30N 40°41' E 013°29'716.7
2018-Oct-17 19:03N 40°39' E 013°39'116.8
2018-Oct-17 19:01N 40°39' E 013°40'1016.7
2018-Oct-17 18:26N 40°38' E 013°53'616.7
2018-Oct-17 18:03N 40°38' E 014°01'116.2
2018-Oct-17 18:01N 40°38' E 014°02'816.9
2018-Oct-17 17:31N 40°43' E 014°11'715.4
2018-Oct-17 17:03N 40°48' E 014°17'112.0
2018-Oct-17 17:00N 40°49' E 014°17'2 2.7
2018-Oct-17 16:27N 40°50' E 014°16'0 0.0
2018-Oct-17 16:03N 40°50' E 014°16'0 0.0
2018-Oct-17 16:00N 40°50' E 014°16'0 0.0
2018-Oct-17 15:30N 40°50' E 014°16'0 0.0
2018-Oct-17 15:03N 40°50' E 014°16'0 0.0
2018-Oct-17 15:00N 40°50' E 014°16'0 0.0
2018-Oct-17 14:03N 40°50' E 014°16'0 0.0
2018-Oct-17 13:30N 40°50' E 014°16'0 0.0
2018-Oct-17 13:03N 40°50' E 014°16'0 0.0
2018-Oct-17 13:00N 40°50' E 014°16'0 0.0
2018-Oct-17 12:30N 40°50' E 014°16'0 0.0
2018-Oct-17 12:03N 40°50' E 014°16'0 0.0
2018-Oct-17 12:00N 40°50' E 014°16'0 0.0
2018-Oct-17 11:30N 40°50' E 014°16'0 0.0
2018-Oct-17 11:03N 40°50' E 014°16'0 0.0
2018-Oct-17 11:00N 40°50' E 014°16'0 0.0
2018-Oct-17 10:30N 40°50' E 014°16'0 0.0
2018-Oct-17 10:03N 40°50' E 014°16'0 0.0
2018-Oct-17 10:00N 40°50' E 014°16'0 0.0
2018-Oct-17 09:30N 40°50' E 014°16'0 0.0
2018-Oct-17 09:03N 40°50' E 014°16'0 0.0
2018-Oct-17 08:57N 40°50' E 014°16'0 0.0
2018-Oct-17 08:30N 40°50' E 014°16'0 0.0
2018-Oct-17 08:00N 40°50' E 014°16'0 0.0
2018-Oct-17 07:30N 40°50' E 014°16'0 0.0
2018-Oct-17 07:03N 40°50' E 014°16'0 0.0
2018-Oct-17 07:00N 40°50' E 014°16'0 0.1
2018-Oct-17 06:30N 40°50' E 014°16'1 1.9
2018-Oct-17 06:03N 40°50' E 014°17'0 7.0
2018-Oct-17 06:00N 40°50' E 014°17'510.6
2018-Oct-17 05:31N 40°45' E 014°14'715.2
2018-Oct-17 05:04N 40°41' E 014°07'115.8
2018-Oct-17 05:01N 40°40' E 014°06'611.2
2018-Oct-17 04:31N 40°38' E 013°60'612.5
2018-Oct-17 04:04N 40°36' E 013°53'112.4
2018-Oct-17 04:01N 40°36' E 013°52'612.2
2018-Oct-17 03:31N 40°34' E 013°44'512.0
2018-Oct-17 03:03N 40°32' E 013°37'112.3
2018-Oct-17 03:01N 40°32' E 013°37'611.9
2018-Oct-17 02:30N 40°31' E 013°29'612.6
2018-Oct-17 02:03N 40°33' E 013°22'112.6
2018-Oct-17 02:00N 40°33' E 013°21'612.6
2018-Oct-17 01:30N 40°35' E 013°13'612.6
2018-Oct-17 01:01N 40°36' E 013°05'48715.5
2018-Oct-15 17:38N 41°15' E 002°23'215.6
2018-Oct-15 17:30N 41°15' E 002°20'714.8
2018-Oct-15 17:03N 41°14' E 002°11'115.4
2018-Oct-15 17:00N 41°15' E 002°11'611.5
2018-Oct-15 16:31N 41°21' E 002°10'1 2.3
2018-Oct-15 16:01N 41°22' E 002°11'0 0.0
2018-Oct-15 15:58N 41°22' E 002°11'0 0.0
2018-Oct-15 15:28N 41°22' E 002°11'0 0.0
2018-Oct-15 15:01N 41°22' E 002°11'0 0.0
2018-Oct-15 14:58N 41°22' E 002°11'0 0.0
2018-Oct-15 14:28N 41°22' E 002°11'0 0.0
2018-Oct-15 13:58N 41°22' E 002°11'0 0.0
2018-Oct-15 13:28N 41°22' E 002°11'0 0.0
2018-Oct-15 13:01N 41°22' E 002°11'0 0.0
2018-Oct-15 12:58N 41°22' E 002°11'0 0.0
2018-Oct-15 12:28N 41°22' E 002°11'0 0.0
2018-Oct-15 12:01N 41°22' E 002°11'0 0.0
2018-Oct-15 11:58N 41°22' E 002°11'0 0.0
2018-Oct-15 11:28N 41°22' E 002°11'0 0.0
2018-Oct-15 11:01N 41°22' E 002°11'0 0.0
2018-Oct-15 10:58N 41°22' E 002°11'0 0.0
2018-Oct-15 10:28N 41°22' E 002°11'0 0.0
2018-Oct-15 10:01N 41°22' E 002°11'0 0.0
2018-Oct-15 09:58N 41°22' E 002°11'0 0.0
2018-Oct-15 09:25N 41°22' E 002°11'0 0.0
2018-Oct-15 09:01N 41°22' E 002°11'0 0.0
2018-Oct-15 08:58N 41°22' E 002°11'0 0.0
2018-Oct-15 08:28N 41°22' E 002°11'0 0.0
2018-Oct-15 08:01N 41°22' E 002°11'0 0.0
2018-Oct-15 07:58N 41°22' E 002°11'3 1.2
2018-Oct-15 05:49N 41°19' E 002°10'3 9.3
2018-Oct-15 05:29N 41°16' E 002°12'2 2.0
2018-Oct-15 04:44N 41°16' E 002°14'5 7.6
2018-Oct-15 04:07N 41°15' E 002°20'0 8.4
2018-Oct-15 04:03N 41°15' E 002°21'0 7.3
2018-Oct-15 04:00N 41°15' E 002°21'4 7.3
2018-Oct-15 03:30N 41°14' E 002°26'3 7.5
2018-Oct-15 03:03N 41°13' E 002°30'0 7.6
2018-Oct-15 03:00N 41°13' E 002°31'  
Track history (hours):
 
Tides and Currents Weather Stations Pressure Air Temp Water Temp Dewpoint Dewpoint Depression Visibility Wind Speed Wind Dir Waves Ship Positions

Sovereign

Last reported at 2018-Oct-24 05:03 UTC. Time now 2018-Oct-24 05:47 UTC.
Position N 40°40' E 014°06'.

Length 269 m; draft 7.8 m.

Type: Passenger vessel. MMSI: 249539000.

Date/timePositionNaut miles runAvg speedWind from/ knotsBaromVisibWave heightAir tempDewpointWater temp
2018-Oct-24 05:03N 40°40' E 014°06'115.1
2018-Oct-24 05:01N 40°40' E 014°06'611.3
2018-Oct-24 04:30N 40°37' E 013°59'612.8
2018-Oct-24 04:03N 40°36' E 013°52'112.7
2018-Oct-24 04:00N 40°35' E 013°51'612.7
2018-Oct-24 03:30N 40°34' E 013°43'612.6
2018-Oct-24 03:03N 40°32' E 013°36'112.1
2018-Oct-24 03:00N 40°32' E 013°35'611.8
2018-Oct-24 02:30N 40°32' E 013°27'612.7
2018-Oct-24 02:03N 40°33' E 013°20'112.6
2018-Oct-24 02:00N 40°33' E 013°19'4715.7
2018-Oct-23 23:00N 40°42' E 012°18'17914.9 160 / 71018.010.8 20.020.022.0
2018-Oct-23 11:00N 41°12' E 008°24'16715.2 350 / 31021.010.8 21.021.022.0
2018-Oct-23 00:00N 41°12' E 004°42'11115.9 350 / 451023.010.8 20.020.022.0
2018-Oct-22 17:00N 41°16' E 002°14'510.3
2018-Oct-22 16:30N 41°20' E 002°10'1 0.6
2018-Oct-22 14:20N 41°22' E 002°11'0 0.0
2018-Oct-22 13:29N 41°22' E 002°11'0 0.0
2018-Oct-22 13:02N 41°22' E 002°11'0 0.0
2018-Oct-22 12:59N 41°22' E 002°11'0 0.0
2018-Oct-22 12:29N 41°22' E 002°11'0 0.0
2018-Oct-22 12:02N 41°22' E 002°11'0 0.0
2018-Oct-22 11:59N 41°22' E 002°11'0 0.0
2018-Oct-22 11:29N 41°22' E 002°11'0 0.0
2018-Oct-22 11:02N 41°22' E 002°11'0 0.0
2018-Oct-22 10:56N 41°22' E 002°11'0 0.0
2018-Oct-22 10:29N 41°22' E 002°11'0 0.0
2018-Oct-22 10:02N 41°22' E 002°11'0 0.0
2018-Oct-22 09:59N 41°22' E 002°11'0 0.0
2018-Oct-22 09:29N 41°22' E 002°11'3 0.6
2018-Oct-22 05:05N 41°19' E 002°10'0 8.4
2018-Oct-22 05:02N 41°19' E 002°10'0 8.5
2018-Oct-22 05:00N 41°18' E 002°10'710.8
2018-Oct-22 04:22N 41°16' E 002°19'412.9
2018-Oct-22 04:04N 41°16' E 002°24'110.0
2018-Oct-22 04:01N 41°16' E 002°25'5 9.1
2018-Oct-22 03:30N 41°17' E 002°31'510.9
2018-Oct-22 03:03N 41°19' E 002°37'111.5
2018-Oct-22 03:00N 41°19' E 002°38'611.8
2018-Oct-22 02:31N 41°21' E 002°45'12312.1
2018-Oct-21 16:20N 43°15' E 003°48'414.1
2018-Oct-21 16:03N 43°19' E 003°47'114.2
2018-Oct-21 16:00N 43°19' E 003°47'510.4
2018-Oct-21 15:30N 43°24' E 003°44'1 1.3
2018-Oct-21 15:03N 43°24' E 003°43'0 0.0
2018-Oct-21 14:57N 43°24' E 003°43'0 0.0
2018-Oct-21 14:03N 43°24' E 003°43'0 0.0
2018-Oct-21 13:57N 43°24' E 003°43'0 0.0
2018-Oct-21 13:27N 43°24' E 003°43'0 0.0
2018-Oct-21 13:03N 43°24' E 003°43'0 0.0
2018-Oct-21 12:57N 43°24' E 003°43'0 0.0
2018-Oct-21 12:27N 43°24' E 003°43'0 0.0
2018-Oct-21 12:03N 43°24' E 003°43'0 0.0
2018-Oct-21 11:51N 43°24' E 003°43'0 0.0
2018-Oct-21 11:27N 43°24' E 003°43'0 0.0
2018-Oct-21 11:03N 43°24' E 003°43'0 0.0
2018-Oct-21 10:57N 43°24' E 003°43'0 0.0
2018-Oct-21 10:27N 43°24' E 003°43'0 0.0
2018-Oct-21 10:03N 43°24' E 003°43'0 0.0
2018-Oct-21 09:57N 43°24' E 003°43'0 0.0
2018-Oct-21 09:27N 43°24' E 003°43'0 0.0
2018-Oct-21 09:03N 43°24' E 003°43'0 0.0
2018-Oct-21 08:57N 43°24' E 003°43'0 0.0
2018-Oct-21 08:27N 43°24' E 003°43'0 0.0
2018-Oct-21 08:03N 43°24' E 003°43'0 0.0
2018-Oct-21 07:57N 43°24' E 003°43'0 0.0
2018-Oct-21 07:27N 43°24' E 003°43'0 0.0
2018-Oct-21 07:03N 43°24' E 003°43'0 0.0
2018-Oct-21 06:57N 43°24' E 003°43'0 0.0
2018-Oct-21 06:27N 43°24' E 003°43'0 0.0
2018-Oct-21 06:03N 43°24' E 003°43'0 0.0
2018-Oct-21 05:57N 43°24' E 003°43'0 0.0
2018-Oct-21 05:27N 43°24' E 003°43'0 0.3
2018-Oct-21 05:03N 43°24' E 003°43'0 1.9
2018-Oct-21 05:00N 43°24' E 003°43'3 5.4
2018-Oct-21 04:30N 43°23' E 003°46'511.7
2018-Oct-21 04:04N 43°19' E 003°51'114.0
2018-Oct-21 03:58N 43°18' E 003°52'613.1
2018-Oct-21 03:30N 43°14' E 003°58'511.0
2018-Oct-21 03:03N 43°12' E 004°05'112.2
2018-Oct-21 03:00N 43°12' E 004°06'2712.2
2018-Oct-21 00:48N 43°05' E 004°41'912.2
2018-Oct-21 00:05N 43°02' E 004°53'312.5
2018-Oct-20 23:50N 43°01' E 004°57'1012.7
2018-Oct-20 23:03N 42°59' E 005°10'212.8
2018-Oct-20 22:55N 42°58' E 005°12'5516.4
2018-Oct-20 19:34N 42°54' E 006°27'116.7
2018-Oct-20 19:30N 42°54' E 006°29'716.7
2018-Oct-20 19:03N 42°54' E 006°39'116.4
2018-Oct-20 19:00N 42°54' E 006°40'915.2
2018-Oct-20 18:26N 42°58' E 006°50'616.8
2018-Oct-20 18:03N 43°03' E 006°56'116.9
2018-Oct-20 18:01N 43°04' E 006°56'917.0
2018-Oct-20 17:30N 43°11' E 007°03'816.9
2018-Oct-20 17:04N 43°17' E 007°10'116.9
2018-Oct-20 17:01N 43°17' E 007°10'917.1
2018-Oct-20 16:31N 43°26' E 007°13'816.8
2018-Oct-20 16:04N 43°33' E 007°16'116.3
2018-Oct-20 16:00N 43°34' E 007°16'714.2
2018-Oct-20 15:30N 43°41' E 007°19'1 1.4
2018-Oct-20 14:58N 43°41' E 007°19'0 0.1
2018-Oct-20 14:28N 43°41' E 007°19'0 0.0
2018-Oct-20 13:58N 43°41' E 007°19'0 0.0
2018-Oct-20 13:22N 43°41' E 007°19'0 0.0
2018-Oct-20 13:01N 43°41' E 007°19'0 0.1
2018-Oct-20 12:58N 43°41' E 007°19'0 0.0
2018-Oct-20 12:28N 43°41' E 007°19'0 0.0
2018-Oct-20 12:01N 43°41' E 007°19'0 0.0
2018-Oct-20 11:58N 43°41' E 007°19'0 0.0
2018-Oct-20 11:28N 43°41' E 007°19'0 0.0
2018-Oct-20 11:01N 43°41' E 007°19'0 0.0
2018-Oct-20 10:55N 43°41' E 007°19'0 0.0
2018-Oct-20 10:28N 43°41' E 007°19'0 0.0
2018-Oct-20 10:01N 43°41' E 007°19'0 0.1
2018-Oct-20 09:58N 43°41' E 007°19'0 0.0
2018-Oct-20 09:25N 43°41' E 007°19'0 0.1
2018-Oct-20 08:55N 43°41' E 007°19'0 0.0
2018-Oct-20 08:28N 43°41' E 007°19'0 0.0
2018-Oct-20 08:01N 43°41' E 007°19'0 0.0
2018-Oct-20 07:58N 43°41' E 007°19'0 0.0
2018-Oct-20 07:28N 43°41' E 007°19'0 0.0
2018-Oct-20 06:58N 43°41' E 007°19'0 0.0
2018-Oct-20 06:28N 43°41' E 007°19'0 0.0
2018-Oct-20 05:52N 43°41' E 007°19'0 0.0
2018-Oct-20 05:30N 43°41' E 007°19'2 4.1
2018-Oct-20 05:03N 43°40' E 007°20'111.3
2018-Oct-20 05:00N 43°40' E 007°21'612.6
2018-Oct-20 04:30N 43°39' E 007°30'613.1
2018-Oct-20 04:03N 43°39' E 007°38'113.1
2018-Oct-20 04:00N 43°39' E 007°39'613.0
2018-Oct-20 03:30N 43°39' E 007°48'4 9.2
2018-Oct-20 03:03N 43°39' E 007°54'1 9.6
2018-Oct-20 03:00N 43°39' E 007°54'5 9.7
2018-Oct-20 02:31N 43°38' E 008°01'4 9.7
2018-Oct-20 02:03N 43°38' E 008°07'0 9.9
2018-Oct-20 02:01N 43°38' E 008°08'5 9.6
2018-Oct-20 01:30N 43°38' E 008°14'4 9.4
2018-Oct-20 01:03N 43°38' E 008°20'0 9.5
2018-Oct-20 01:00N 43°38' E 008°21'5 9.3
2018-Oct-20 00:30N 43°37' E 008°27'4 9.0
2018-Oct-20 00:03N 43°37' E 008°33'0 9.2
2018-Oct-20 00:01N 43°37' E 008°33'5 9.0
2018-Oct-19 23:30N 43°37' E 008°40'511.7
2018-Oct-19 23:03N 43°37' E 008°47'113.2
2018-Oct-19 23:00N 43°37' E 008°48'713.3
2018-Oct-19 22:30N 43°36' E 008°57'613.8
2018-Oct-19 22:03N 43°36' E 009°05'113.9
2018-Oct-19 22:00N 43°36' E 009°06'714.1
2018-Oct-19 21:30N 43°35' E 009°16'614.3
2018-Oct-19 21:03N 43°35' E 009°25'114.4
2018-Oct-19 21:00N 43°35' E 009°26'714.3
2018-Oct-19 20:30N 43°35' E 009°36'614.3
2018-Oct-19 20:03N 43°33' E 009°44'114.3
2018-Oct-19 20:00N 43°33' E 009°45'714.6
2018-Oct-19 19:30N 43°32' E 009°55'614.3
2018-Oct-19 19:03N 43°30' E 010°04'114.1
2018-Oct-19 19:00N 43°30' E 010°05'713.7
2018-Oct-19 18:30N 43°32' E 010°14'3 6.6
2018-Oct-19 18:03N 43°33' E 010°18'0 0.1
2018-Oct-19 18:00N 43°33' E 010°18'0 0.0
2018-Oct-19 17:30N 43°33' E 010°18'0 0.0
2018-Oct-19 17:00N 43°33' E 010°18'0 0.0
2018-Oct-19 16:30N 43°33' E 010°18'0 0.0
2018-Oct-19 16:00N 43°33' E 010°18'0 0.0
2018-Oct-19 15:30N 43°33' E 010°18'0 0.0
2018-Oct-19 15:00N 43°33' E 010°18'0 0.0
2018-Oct-19 14:30N 43°33' E 010°18'0 0.0
2018-Oct-19 13:30N 43°33' E 010°18'0 0.0
2018-Oct-19 13:00N 43°33' E 010°18'0 0.0
2018-Oct-19 12:30N 43°33' E 010°18'0 0.0
2018-Oct-19 12:00N 43°33' E 010°18'0 0.0
2018-Oct-19 11:30N 43°33' E 010°18'0 0.0
2018-Oct-19 11:00N 43°33' E 010°18'0 0.0
2018-Oct-19 10:30N 43°33' E 010°18'0 0.0
2018-Oct-19 10:00N 43°33' E 010°18'0 0.0
2018-Oct-19 09:30N 43°33' E 010°18'0 0.0
2018-Oct-19 09:00N 43°33' E 010°18'0 0.0
2018-Oct-19 08:30N 43°33' E 010°18'0 0.0
2018-Oct-19 08:00N 43°33' E 010°18'0 0.0
2018-Oct-19 07:30N 43°33' E 010°18'0 0.0
2018-Oct-19 07:00N 43°33' E 010°18'0 0.0
2018-Oct-19 06:30N 43°33' E 010°18'0 0.0
2018-Oct-19 06:00N 43°33' E 010°18'0 0.3
2018-Oct-19 05:30N 43°33' E 010°18'2 4.0
2018-Oct-19 05:03N 43°32' E 010°16'0 7.5
2018-Oct-19 05:00N 43°32' E 010°16'5 9.5
2018-Oct-19 04:30N 43°27' E 010°13'612.8
2018-Oct-19 04:03N 43°22' E 010°11'0 9.3
2018-Oct-19 04:00N 43°21' E 010°11'510.2
2018-Oct-19 03:30N 43°16' E 010°09'511.7
2018-Oct-19 03:03N 43°11' E 010°08'111.6
2018-Oct-19 03:00N 43°11' E 010°08'611.4
2018-Oct-19 02:30N 43°05' E 010°06'512.0
2018-Oct-19 02:03N 42°60' E 010°05'112.3
2018-Oct-19 02:00N 42°59' E 010°04'612.5
2018-Oct-19 01:30N 42°53' E 010°03'612.5
2018-Oct-19 01:03N 42°47' E 010°01'012.5
2018-Oct-19 01:00N 42°47' E 010°01'612.1
2018-Oct-19 00:30N 42°42' E 010°05'612.5
2018-Oct-19 00:01N 42°37' E 010°11'112.4
2018-Oct-18 23:58N 42°37' E 010°11'612.4
2018-Oct-18 23:30N 42°32' E 010°16'612.6
2018-Oct-18 23:03N 42°28' E 010°22'112.7
2018-Oct-18 22:58N 42°27' E 010°22'613.1
2018-Oct-18 22:30N 42°23' E 010°28'713.3
2018-Oct-18 21:58N 42°17' E 010°34'813.6
2018-Oct-18 21:25N 42°12' E 010°41'101 4.5
2018-Oct-17 23:00N 41°06' E 012°24'5315.9 050 / 101016.010.8 21.019.423.0
2018-Oct-17 19:38N 40°42' E 013°27'216.7
2018-Oct-17 19:30N 40°41' E 013°29'716.7
2018-Oct-17 19:03N 40°39' E 013°39'116.8
2018-Oct-17 19:01N 40°39' E 013°40'1016.7
2018-Oct-17 18:26N 40°38' E 013°53'616.7
2018-Oct-17 18:03N 40°38' E 014°01'116.2
2018-Oct-17 18:01N 40°38' E 014°02'816.9
2018-Oct-17 17:31N 40°43' E 014°11'715.4
2018-Oct-17 17:03N 40°48' E 014°17'112.0
2018-Oct-17 17:00N 40°49' E 014°17'2 2.7
2018-Oct-17 16:27N 40°50' E 014°16'0 0.0
2018-Oct-17 16:03N 40°50' E 014°16'0 0.0
2018-Oct-17 16:00N 40°50' E 014°16'0 0.0
2018-Oct-17 15:30N 40°50' E 014°16'0 0.0
2018-Oct-17 15:03N 40°50' E 014°16'0 0.0
2018-Oct-17 15:00N 40°50' E 014°16'0 0.0
2018-Oct-17 14:03N 40°50' E 014°16'0 0.0
2018-Oct-17 13:30N 40°50' E 014°16'0 0.0
2018-Oct-17 13:03N 40°50' E 014°16'0 0.0
2018-Oct-17 13:00N 40°50' E 014°16'0 0.0
2018-Oct-17 12:30N 40°50' E 014°16'0 0.0
2018-Oct-17 12:03N 40°50' E 014°16'0 0.0
2018-Oct-17 12:00N 40°50' E 014°16'0 0.0
2018-Oct-17 11:30N 40°50' E 014°16'0 0.0
2018-Oct-17 11:03N 40°50' E 014°16'0 0.0
2018-Oct-17 11:00N 40°50' E 014°16'0 0.0
2018-Oct-17 10:30N 40°50' E 014°16'0 0.0
2018-Oct-17 10:03N 40°50' E 014°16'0 0.0
2018-Oct-17 10:00N 40°50' E 014°16'0 0.0
2018-Oct-17 09:30N 40°50' E 014°16'0 0.0
2018-Oct-17 09:03N 40°50' E 014°16'0 0.0
2018-Oct-17 08:57N 40°50' E 014°16'0 0.0
2018-Oct-17 08:30N 40°50' E 014°16'0 0.0
2018-Oct-17 08:00N 40°50' E 014°16'0 0.0
2018-Oct-17 07:30N 40°50' E 014°16'0 0.0
2018-Oct-17 07:03N 40°50' E 014°16'0 0.0
2018-Oct-17 07:00N 40°50' E 014°16'0 0.1
2018-Oct-17 06:30N 40°50' E 014°16'1 1.9
2018-Oct-17 06:03N 40°50' E 014°17'0 7.0
2018-Oct-17 06:00N 40°50' E 014°17'510.6
2018-Oct-17 05:31N 40°45' E 014°14'715.2
2018-Oct-17 05:04N 40°41' E 014°07'115.8
2018-Oct-17 05:01N 40°40' E 014°06'611.2
2018-Oct-17 04:31N 40°38' E 013°60'612.5
2018-Oct-17 04:04N 40°36' E 013°53'112.4
2018-Oct-17 04:01N 40°36' E 013°52'612.2
2018-Oct-17 03:31N 40°34' E 013°44'512.0
2018-Oct-17 03:03N 40°32' E 013°37'112.3
2018-Oct-17 03:01N 40°32' E 013°37'611.9
2018-Oct-17 02:30N 40°31' E 013°29'612.6
2018-Oct-17 02:03N 40°33' E 013°22'112.6
2018-Oct-17 02:00N 40°33' E 013°21'612.6
2018-Oct-17 01:30N 40°35' E 013°13'612.6
2018-Oct-17 01:01N 40°36' E 013°05'48715.5
2018-Oct-15 17:38N 41°15' E 002°23'215.6
2018-Oct-15 17:30N 41°15' E 002°20'714.8
2018-Oct-15 17:03N 41°14' E 002°11'115.4
2018-Oct-15 17:00N 41°15' E 002°11'611.5
2018-Oct-15 16:31N 41°21' E 002°10'1 2.3
2018-Oct-15 16:01N 41°22' E 002°11'0 0.0
2018-Oct-15 15:58N 41°22' E 002°11'0 0.0
2018-Oct-15 15:28N 41°22' E 002°11'0 0.0
2018-Oct-15 15:01N 41°22' E 002°11'0 0.0
2018-Oct-15 14:58N 41°22' E 002°11'0 0.0
2018-Oct-15 14:28N 41°22' E 002°11'0 0.0
2018-Oct-15 13:58N 41°22' E 002°11'0 0.0
2018-Oct-15 13:28N 41°22' E 002°11'0 0.0
2018-Oct-15 13:01N 41°22' E 002°11'0 0.0
2018-Oct-15 12:58N 41°22' E 002°11'0 0.0
2018-Oct-15 12:28N 41°22' E 002°11'0 0.0
2018-Oct-15 12:01N 41°22' E 002°11'0 0.0
2018-Oct-15 11:58N 41°22' E 002°11'0 0.0
2018-Oct-15 11:28N 41°22' E 002°11'0 0.0
2018-Oct-15 11:01N 41°22' E 002°11'0 0.0
2018-Oct-15 10:58N 41°22' E 002°11'0 0.0
2018-Oct-15 10:28N 41°22' E 002°11'0 0.0
2018-Oct-15 10:01N 41°22' E 002°11'0 0.0
2018-Oct-15 09:58N 41°22' E 002°11'0 0.0
2018-Oct-15 09:25N 41°22' E 002°11'0 0.0
2018-Oct-15 09:01N 41°22' E 002°11'0 0.0
2018-Oct-15 08:58N 41°22' E 002°11'0 0.0
2018-Oct-15 08:28N 41°22' E 002°11'0 0.0
2018-Oct-15 08:01N 41°22' E 002°11'0 0.0
2018-Oct-15 07:58N 41°22' E 002°11'3 1.2
2018-Oct-15 05:49N 41°19' E 002°10'3 9.3
2018-Oct-15 05:29N 41°16' E 002°12'2 2.0
2018-Oct-15 04:44N 41°16' E 002°14'5 7.6
2018-Oct-15 04:07N 41°15' E 002°20'0 8.4
2018-Oct-15 04:03N 41°15' E 002°21'0 7.3
2018-Oct-15 04:00N 41°15' E 002°21'4 7.3
2018-Oct-15 03:30N 41°14' E 002°26'3 7.5
2018-Oct-15 03:03N 41°13' E 002°30'0 7.6
2018-Oct-15 03:00N 41°13' E 002°31'  

Dump ship's entire track history